This is the latest recevied weather packets stored in our database for station/object YO8PIC-4. If no packets are shown the sender has not sent any weather packets the latest 10 day(s).
| Time | Temp. | Humidity | Pressure | Rain* | Wind** | Luminosity | Snow |
|---|---|---|---|---|---|---|---|
| 1778250769 | 25° C | 59% | 1012.6 hPa | - | - | - | - |
| 1778250169 | 24.44° C | 60% | 1012.5 hPa | - | - | - | - |
| 1778249569 | 24.44° C | 60% | 1012.6 hPa | - | - | - | - |
| 1778248969 | 24.44° C | 60% | 1012.5 hPa | - | - | - | - |
| 1778248369 | 25° C | 59% | 1012.5 hPa | - | - | - | - |
| 1778247769 | 25° C | 60% | 1012.4 hPa | - | - | - | - |
| 1778247169 | 25° C | 58% | 1012.5 hPa | - | - | - | - |
| 1778246569 | 25° C | 58% | 1012.3 hPa | - | - | - | - |
| 1778245968 | 25.56° C | 54% | 1012.1 hPa | - | - | - | - |
| 1778245368 | 25.56° C | 54% | 1011.3 hPa | - | - | - | - |
| 1778244768 | 25.56° C | 53% | 1010.5 hPa | - | - | - | - |
| 1778244168 | 25.56° C | 54% | 1010.5 hPa | - | - | - | - |
| 1778243568 | 25.56° C | 54% | 1010.7 hPa | - | - | - | - |
| 1778242968 | 25.56° C | 53% | 1010.8 hPa | - | - | - | - |
| 1778242367 | 25.56° C | 53% | 1011 hPa | - | - | - | - |
| 1778241767 | 25.56° C | 52% | 1011.1 hPa | - | - | - | - |
| 1778241167 | 27.22° C | 48% | 1011 hPa | - | - | - | - |
| 1778240567 | 27.22° C | 48% | 1011.1 hPa | - | - | - | - |
| 1778239967 | 27.78° C | 48% | 1011.2 hPa | - | - | - | - |
| 1778239365 | 27.22° C | 50% | 1011.2 hPa | - | - | - | - |
| 1778238765 | 26.67° C | 50% | 1010.5 hPa | - | - | - | - |
| 1778238160 | 27.22° C | 49% | 1011.3 hPa | - | - | - | - |
| 1778237560 | 27.22° C | 48% | 1011.3 hPa | - | - | - | - |
| 1778236960 | 27.22° C | 49% | 1011.3 hPa | - | - | - | - |
| 1778236359 | 27.22° C | 49% | 1011.4 hPa | - | - | - | - |
* Rain since midnight (hover to see other rain measurements)
** Current wind speed in m/s (hover to see current wind gust speed)